createdAt,value
2022-08-28T00:00:28.102Z,76.58
2022-08-28T00:02:58.408Z,76.66
2022-08-28T00:05:28.645Z,76.74
2022-08-28T00:07:57.405Z,76.57
2022-08-28T00:10:26.299Z,75.92
2022-08-28T00:12:55.812Z,76.42
2022-08-28T00:15:27.704Z,76.56
2022-08-28T00:17:55.864Z,76.55
2022-08-28T00:20:26.798Z,76.94
2022-08-28T00:22:55.703Z,76.73
2022-08-28T00:25:25.493Z,77.40
2022-08-28T00:27:52.970Z,77.51
2022-08-28T00:30:23.360Z,77.43
2022-08-28T00:32:51.769Z,77.59
2022-08-28T00:35:20.244Z,78.08
2022-08-28T00:37:50.570Z,78.53
2022-08-28T00:40:28.513Z,79.10
2022-08-28T00:42:57.580Z,79.44
2022-08-28T00:45:26.704Z,79.40
2022-08-28T00:47:54.865Z,80.25
2022-08-28T00:50:25.966Z,80.50
2022-08-28T00:52:58.183Z,80.18
2022-08-28T00:55:28.164Z,80.54
2022-08-28T00:57:59.093Z,81.22
2022-08-28T01:00:31.147Z,81.74
2022-08-28T01:02:59.631Z,81.98
2022-08-28T01:05:28.871Z,81.56
2022-08-28T01:07:59.792Z,81.25
2022-08-28T01:10:30.514Z,81.68
2022-08-28T01:12:59.009Z,82.28
2022-08-28T01:15:29.043Z,81.40
2022-08-28T01:18:02.569Z,80.75
2022-08-28T01:20:34.455Z,80.49
2022-08-28T01:23:09.883Z,79.94
2022-08-28T01:25:40.316Z,80.75
2022-08-28T01:28:12.602Z,81.08
2022-08-28T01:30:43.015Z,81.46
2022-08-28T01:33:12.010Z,81.43
2022-08-28T01:35:42.672Z,81.02
2022-08-28T01:38:11.138Z,80.39
2022-08-28T01:40:43.089Z,80.47
2022-08-28T01:43:13.578Z,80.73
2022-08-28T01:45:42.426Z,80.30
2022-08-28T01:48:10.491Z,81.65
2022-08-28T01:50:39.485Z,80.93
2022-08-28T01:53:08.056Z,81.25
2022-08-28T01:55:41.877Z,81.39
2022-08-28T01:58:10.551Z,81.22
2022-08-28T02:00:39.697Z,81.32
2022-08-28T02:03:07.923Z,80.82
2022-08-28T02:05:36.389Z,80.54
2022-08-28T02:08:06.292Z,81.15
2022-08-28T02:10:36.945Z,80.46
2022-08-28T02:13:07.353Z,79.88
2022-08-28T02:15:37.183Z,80.54
2022-08-28T02:18:06.296Z,80.05
2022-08-28T02:20:35.315Z,80.17
2022-08-28T02:23:03.411Z,79.90
2022-08-28T02:25:31.633Z,79.72
2022-08-28T02:27:59.941Z,79.91
2022-08-28T02:30:29.748Z,79.46
2022-08-28T02:32:57.879Z,79.47
2022-08-28T02:35:25.930Z,79.78
2022-08-28T02:37:54.569Z,78.92
2022-08-28T02:40:24.772Z,79.79
2022-08-28T02:42:53.165Z,79.89
2022-08-28T02:45:21.549Z,79.71
2022-08-28T02:47:52.943Z,79.84
2022-08-28T02:50:21.865Z,79.75
2022-08-28T02:52:49.974Z,80.05
2022-08-28T02:55:19.386Z,80.17
2022-08-28T02:57:48.816Z,79.84
2022-08-28T03:00:19.903Z,79.77
2022-08-28T03:02:48.535Z,79.85
2022-08-28T03:05:21.435Z,80.06
2022-08-28T03:07:50.202Z,79.75
2022-08-28T03:10:18.719Z,79.72
2022-08-28T03:12:46.872Z,80.09
2022-08-28T03:15:14.913Z,80.00
2022-08-28T03:17:42.953Z,79.90
2022-08-28T03:20:13.145Z,79.92
2022-08-28T03:23:00.310Z,80.13
2022-08-28T03:25:28.475Z,80.00
2022-08-28T03:27:57.118Z,79.89
2022-08-28T03:30:25.645Z,80.06
2022-08-28T03:32:54.010Z,79.36
2022-08-28T03:35:22.229Z,79.56
2022-08-28T03:37:51.761Z,79.67
2022-08-28T03:40:20.491Z,79.28
2022-08-28T03:42:53.230Z,79.70
2022-08-28T03:45:21.812Z,79.71
2022-08-28T03:47:50.844Z,79.73
2022-08-28T03:50:19.892Z,79.51
2022-08-28T03:52:48.186Z,80.10
2022-08-28T03:55:18.882Z,79.37
2022-08-28T03:57:46.960Z,79.52
2022-08-28T04:00:16.069Z,80.44
2022-08-28T04:02:46.226Z,79.94
2022-08-28T04:05:14.784Z,79.67
2022-08-28T04:07:42.820Z,79.09
2022-08-28T04:10:12.195Z,79.38
2022-08-28T04:12:41.566Z,79.35
2022-08-28T04:15:11.231Z,79.53
2022-08-28T04:17:39.990Z,79.25
2022-08-28T04:20:10.952Z,79.56
2022-08-28T04:22:39.890Z,79.62
2022-08-28T04:25:09.061Z,79.49
2022-08-28T04:27:37.322Z,79.51
2022-08-28T04:30:10.009Z,79.52
2022-08-28T04:32:39.352Z,79.56
2022-08-28T04:35:09.660Z,79.21
2022-08-28T04:37:39.164Z,79.01
2022-08-28T04:40:10.805Z,79.10
2022-08-28T04:42:40.036Z,79.06
2022-08-28T04:45:10.690Z,79.14
2022-08-28T04:47:39.552Z,79.33
2022-08-28T04:50:09.005Z,79.01
2022-08-28T04:52:37.122Z,78.80
2022-08-28T04:55:06.228Z,79.44
2022-08-28T04:57:36.402Z,78.80
2022-08-28T05:00:06.771Z,78.90
2022-08-28T05:02:36.312Z,79.04
2022-08-28T05:05:05.187Z,79.30
2022-08-28T05:07:33.305Z,78.63
2022-08-28T05:10:01.483Z,78.92
2022-08-28T05:12:29.502Z,79.10
2022-08-28T05:14:57.628Z,79.03
2022-08-28T05:17:25.728Z,78.83
2022-08-28T05:19:55.629Z,78.72
2022-08-28T05:22:23.880Z,78.60
2022-08-28T05:29:17.836Z,78.76
2022-08-28T05:31:46.216Z,78.35
2022-08-28T05:34:15.245Z,78.34
2022-08-28T05:36:44.679Z,78.21
2022-08-28T05:39:13.344Z,77.39
2022-08-28T05:41:43.194Z,78.04
2022-08-28T05:44:14.208Z,77.99
2022-08-28T05:46:44.883Z,78.30
2022-08-28T05:49:13.560Z,78.45
2022-08-28T05:51:44.161Z,78.41
2022-08-28T05:54:12.825Z,78.16
2022-08-28T05:56:42.110Z,78.17
2022-08-28T05:59:10.826Z,78.13
2022-08-28T06:01:40.985Z,78.58
2022-08-28T06:04:11.660Z,78.69
2022-08-28T06:06:41.231Z,78.87
2022-08-28T06:09:12.601Z,79.48
2022-08-28T06:11:44.670Z,79.13
2022-08-28T06:14:16.583Z,78.92
2022-08-28T06:16:47.798Z,79.10
2022-08-28T06:19:17.514Z,78.58
2022-08-28T06:21:46.885Z,78.45
2022-08-28T06:24:16.316Z,78.75
2022-08-28T06:26:44.635Z,78.42
2022-08-28T06:29:15.710Z,79.00
2022-08-28T06:31:43.901Z,78.90
2022-08-28T06:34:12.241Z,79.53
2022-08-28T06:36:42.828Z,79.69
2022-08-28T06:39:12.957Z,79.13
2022-08-28T06:41:43.315Z,78.77
2022-08-28T06:44:12.487Z,78.62
2022-08-28T06:46:41.123Z,78.87
2022-08-28T06:49:09.621Z,78.64
2022-08-28T06:51:37.755Z,78.76
2022-08-28T06:54:06.512Z,78.53
2022-08-28T06:56:34.950Z,78.94
2022-08-28T06:59:05.110Z,78.87
2022-08-28T07:01:35.100Z,78.45
2022-08-28T07:04:05.917Z,78.90
2022-08-28T07:06:35.688Z,78.88
2022-08-28T07:09:05.287Z,79.16
2022-08-28T07:11:34.674Z,79.31
2022-08-28T07:14:04.945Z,79.01
2022-08-28T07:16:35.230Z,78.77
2022-08-28T07:19:05.094Z,78.96
2022-08-28T07:21:38.208Z,78.03
2022-08-28T07:24:07.936Z,78.49
2022-08-28T07:26:37.286Z,78.19
2022-08-28T07:29:10.944Z,78.40
2022-08-28T07:31:41.370Z,78.53
2022-08-28T07:34:10.911Z,78.59
2022-08-28T07:36:39.450Z,78.89
2022-08-28T07:39:08.741Z,78.88
2022-08-28T07:41:39.395Z,79.45
2022-08-28T07:44:27.861Z,79.15
2022-08-28T07:46:56.506Z,79.09
2022-08-28T07:49:25.006Z,79.02
2022-08-28T07:51:53.935Z,79.36
2022-08-28T07:54:22.718Z,79.51
2022-08-28T07:56:51.099Z,79.11
2022-08-28T07:59:20.572Z,79.19
2022-08-28T08:01:51.182Z,79.30
2022-08-28T08:04:20.347Z,79.15
2022-08-28T08:06:48.650Z,78.47
2022-08-28T08:09:19.167Z,78.09
2022-08-28T08:11:47.842Z,78.04
2022-08-28T08:14:17.923Z,77.64
2022-08-28T08:16:48.760Z,77.22
2022-08-28T08:19:17.288Z,78.23
2022-08-28T08:21:54.652Z,77.36
2022-08-28T08:24:42.882Z,76.40
2022-08-28T08:27:11.559Z,77.41
2022-08-28T08:29:40.297Z,77.82
2022-08-28T08:32:11.874Z,77.33
2022-08-28T08:34:42.230Z,77.28
2022-08-28T08:37:11.814Z,76.49
2022-08-28T08:39:41.638Z,76.64
2022-08-28T08:42:20.699Z,75.56
2022-08-28T08:44:49.367Z,75.38
2022-08-28T08:47:22.389Z,75.98
2022-08-28T08:49:54.258Z,74.80
2022-08-28T08:52:49.326Z,73.84
2022-08-28T08:55:27.133Z,74.35
2022-08-28T08:58:04.825Z,75.35
2022-08-28T09:00:34.928Z,74.56
2022-08-28T09:03:08.257Z,74.80
2022-08-28T09:05:51.107Z,72.91
2022-08-28T09:08:28.201Z,72.80
2022-08-28T09:11:05.658Z,73.62
2022-08-28T09:13:42.204Z,72.62
2022-08-28T09:16:18.445Z,72.60
2022-08-28T09:18:48.514Z,72.90
2022-08-28T09:21:29.249Z,71.58
2022-08-28T09:24:05.882Z,72.09
2022-08-28T09:26:35.913Z,72.44
2022-08-28T09:29:06.935Z,72.36
2022-08-28T09:31:37.313Z,72.23
2022-08-28T09:34:25.444Z,73.50
2022-08-28T09:36:54.492Z,71.60
2022-08-28T09:39:24.727Z,72.62
2022-08-28T09:42:34.030Z,72.73
2022-08-28T09:45:09.609Z,72.94
2022-08-28T09:47:49.626Z,71.98
2022-08-28T09:50:34.778Z,71.56
2022-08-28T09:53:18.765Z,71.09
2022-08-28T09:55:56.773Z,71.10
2022-08-28T09:58:31.182Z,72.21
2022-08-28T10:01:06.461Z,72.10
2022-08-28T10:03:37.999Z,70.83
2022-08-28T10:06:12.866Z,70.67
2022-08-28T10:08:59.596Z,68.78
2022-08-28T10:11:34.253Z,69.69
2022-08-28T10:14:11.240Z,68.90
2022-08-28T10:16:46.699Z,70.76
2022-08-28T10:19:27.486Z,71.55
2022-08-28T10:22:05.094Z,70.02
2022-08-28T10:24:49.478Z,68.39
2022-08-28T10:27:31.673Z,67.58
2022-08-28T10:30:12.445Z,68.05
2022-08-28T10:32:54.759Z,65.56
2022-08-28T10:35:25.806Z,68.65
2022-08-28T10:37:59.590Z,66.72
2022-08-28T10:40:30.001Z,65.58
2022-08-28T10:43:04.893Z,65.21
2022-08-28T10:45:34.935Z,65.96
2022-08-28T10:48:11.965Z,64.00
2022-08-28T10:50:44.668Z,65.06
2022-08-28T10:53:17.362Z,66.45
2022-08-28T10:55:54.042Z,67.77
2022-08-28T10:58:22.570Z,66.55
2022-08-28T11:00:55.302Z,65.29
2022-08-28T11:03:34.495Z,65.62
2022-08-28T11:06:11.498Z,65.21
2022-08-28T11:08:42.461Z,64.57
2022-08-28T11:11:14.888Z,66.28
2022-08-28T11:13:48.368Z,66.40
2022-08-28T11:16:22.661Z,64.67
2022-08-28T11:19:20.770Z,64.59
2022-08-28T11:21:51.961Z,65.01
2022-08-28T11:24:32.185Z,63.95
2022-08-28T11:27:06.808Z,64.75
2022-08-28T11:30:07.589Z,64.22
2022-08-28T11:33:20.117Z,63.07
2022-08-28T11:35:51.127Z,61.53
2022-08-28T11:39:05.008Z,62.24
2022-08-28T11:41:36.554Z,63.20
2022-08-28T11:44:28.436Z,63.88
2022-08-28T11:46:58.944Z,63.10
2022-08-28T11:49:42.310Z,62.75
2022-08-28T11:52:25.687Z,62.74
2022-08-28T11:54:57.805Z,61.05
2022-08-28T11:57:32.441Z,62.30
2022-08-28T12:00:07.896Z,62.34
2022-08-28T12:02:51.816Z,63.31
2022-08-28T12:05:54.497Z,63.78
2022-08-28T12:09:15.485Z,64.93
2022-08-28T12:12:01.007Z,63.28
2022-08-28T12:15:00.906Z,64.62
2022-08-28T12:17:53.537Z,64.02
2022-08-28T12:20:36.765Z,64.12
2022-08-28T12:23:25.090Z,62.48
2022-08-28T12:26:00.757Z,61.83
2022-08-28T12:28:31.720Z,63.28
2022-08-28T12:31:48.215Z,62.52
2022-08-28T12:34:20.246Z,62.77
2022-08-28T12:36:56.861Z,62.51
2022-08-28T12:39:25.015Z,64.39
2022-08-28T12:41:53.080Z,64.46
2022-08-28T12:44:25.579Z,59.79
2022-08-28T12:46:55.186Z,60.23
2022-08-28T12:49:32.795Z,62.32
2022-08-28T12:52:17.026Z,62.16
2022-08-28T12:54:47.016Z,59.43
2022-08-28T12:57:17.505Z,61.02
2022-08-28T12:59:47.640Z,59.73
2022-08-28T13:02:26.841Z,57.13
2022-08-28T13:04:57.551Z,59.56
2022-08-28T13:07:29.147Z,60.06
2022-08-28T13:09:59.426Z,60.09
2022-08-28T13:12:54.281Z,59.28
2022-08-28T13:15:47.014Z,57.49
2022-08-28T13:18:44.483Z,58.72
2022-08-28T13:21:15.246Z,57.45
2022-08-28T13:23:43.381Z,58.13
2022-08-28T13:26:12.243Z,59.71
2022-08-28T13:28:41.860Z,58.51
2022-08-28T13:31:23.737Z,59.21
2022-08-28T13:34:09.218Z,55.55
2022-08-28T13:36:41.943Z,56.33
2022-08-28T13:39:10.855Z,57.78
2022-08-28T13:41:39.029Z,56.57
2022-08-28T13:44:07.480Z,58.41
2022-08-28T13:46:36.186Z,58.84
2022-08-28T13:49:05.623Z,57.91
2022-08-28T13:51:35.036Z,59.98
2022-08-28T13:54:07.695Z,60.36
2022-08-28T13:56:36.908Z,59.24
2022-08-28T13:59:05.516Z,57.70
2022-08-28T14:01:47.853Z,60.17
2022-08-28T14:04:17.482Z,60.92
2022-08-28T14:06:45.543Z,61.50
2022-08-28T14:09:15.428Z,60.64
2022-08-28T14:11:46.474Z,61.66
2022-08-28T14:14:15.088Z,61.53
2022-08-28T14:16:45.079Z,61.48
2022-08-28T14:19:13.412Z,60.48
2022-08-28T14:21:42.967Z,61.68
2022-08-28T14:24:11.401Z,60.99
2022-08-28T14:26:39.895Z,61.22
2022-08-28T14:29:09.772Z,60.41
2022-08-28T14:31:40.903Z,60.89
2022-08-28T14:34:11.245Z,61.20
2022-08-28T14:36:39.267Z,61.15
2022-08-28T14:39:10.019Z,60.60
2022-08-28T14:41:38.419Z,61.28
2022-08-28T14:44:06.635Z,62.39
2022-08-28T14:46:36.693Z,62.26
2022-08-28T14:49:07.491Z,62.59
2022-08-28T14:51:37.670Z,62.63
2022-08-28T14:54:07.611Z,62.04
2022-08-28T14:56:37.112Z,62.80
2022-08-28T14:59:08.746Z,61.92
2022-08-28T15:01:41.298Z,63.16
2022-08-28T15:04:11.525Z,63.29
2022-08-28T15:06:42.525Z,63.26
2022-08-28T15:09:10.929Z,63.32
2022-08-28T15:11:45.042Z,63.49
2022-08-28T15:14:13.254Z,63.56
2022-08-28T15:16:43.766Z,63.71
2022-08-28T15:19:13.215Z,64.05
2022-08-28T15:21:43.701Z,63.77
2022-08-28T15:24:14.534Z,64.45
2022-08-28T15:26:44.957Z,65.06
2022-08-28T15:29:13.296Z,64.65
2022-08-28T15:31:43.257Z,65.15
2022-08-28T15:34:15.027Z,65.05
2022-08-28T15:36:44.535Z,64.73
2022-08-28T15:39:30.666Z,65.20
2022-08-28T15:42:01.383Z,65.03
2022-08-28T15:44:30.160Z,65.17
2022-08-28T15:47:01.013Z,64.82
2022-08-28T15:49:30.897Z,64.88
2022-08-28T15:52:00.316Z,62.41
2022-08-28T15:54:28.501Z,63.49
2022-08-28T15:56:56.514Z,63.95
2022-08-28T15:59:39.997Z,63.84
2022-08-28T16:02:14.646Z,62.00
2022-08-28T16:04:42.681Z,61.66
2022-08-28T16:07:11.137Z,60.55
2022-08-28T16:09:39.348Z,61.84
2022-08-28T16:12:07.611Z,59.27
2022-08-28T16:14:37.233Z,61.18
2022-08-28T16:17:05.858Z,60.90
2022-08-28T16:19:39.022Z,58.50
2022-08-28T16:22:07.039Z,57.02
2022-08-28T16:24:35.399Z,57.00
2022-08-28T16:27:03.541Z,56.93
2022-08-28T16:29:31.553Z,58.27
2022-08-28T16:32:00.996Z,57.75
2022-08-28T16:34:31.531Z,57.99
2022-08-28T16:36:59.813Z,58.78
2022-08-28T16:39:27.971Z,57.35
2022-08-28T16:41:56.034Z,57.65
2022-08-28T16:44:25.749Z,58.25
2022-08-28T16:46:54.480Z,56.80
2022-08-28T16:49:24.960Z,57.96
2022-08-28T16:51:53.044Z,57.01
2022-08-28T16:54:21.822Z,56.70
2022-08-28T16:56:49.943Z,55.77
2022-08-28T16:59:18.305Z,57.00
2022-08-28T17:01:46.613Z,55.50
2022-08-28T17:04:21.374Z,54.06
2022-08-28T17:06:50.792Z,55.40
2022-08-28T17:09:21.000Z,56.22
2022-08-28T17:11:51.652Z,57.65
2022-08-28T17:14:20.910Z,55.29
2022-08-28T17:16:49.498Z,56.85
2022-08-28T17:19:17.712Z,57.24
2022-08-28T17:22:03.765Z,57.12
2022-08-28T17:24:33.122Z,57.98
2022-08-28T17:27:05.368Z,58.63
2022-08-28T17:29:33.886Z,58.59
2022-08-28T17:32:02.340Z,58.53
2022-08-28T17:34:30.788Z,57.24
2022-08-28T17:37:01.247Z,58.13
2022-08-28T17:39:29.497Z,58.42
2022-08-28T17:41:59.018Z,62.35
2022-08-28T17:44:27.107Z,63.29
2022-08-28T17:46:55.249Z,64.55
2022-08-28T17:49:23.589Z,64.68
2022-08-28T17:51:52.067Z,66.06
2022-08-28T17:54:22.611Z,65.44
2022-08-28T17:56:50.771Z,65.49
2022-08-28T17:59:21.153Z,65.84
2022-08-28T18:01:50.001Z,65.85
2022-08-28T18:04:24.196Z,66.28
2022-08-28T18:06:54.601Z,66.99
2022-08-28T18:09:23.515Z,66.68
2022-08-28T18:11:52.080Z,67.59
2022-08-28T18:14:22.008Z,67.31
2022-08-28T18:16:50.146Z,67.45
2022-08-28T18:19:18.478Z,67.40
2022-08-28T18:21:46.758Z,67.88
2022-08-28T18:24:14.774Z,67.94
2022-08-28T18:26:43.917Z,66.92
2022-08-28T18:29:12.307Z,67.52
2022-08-28T18:31:41.958Z,68.48
2022-08-28T18:34:10.987Z,68.51
2022-08-28T18:36:41.504Z,69.14
2022-08-28T18:39:10.130Z,69.17
2022-08-28T18:41:43.754Z,68.82
2022-08-28T18:44:13.760Z,69.53
2022-08-28T18:46:43.906Z,69.34
2022-08-28T18:49:12.604Z,69.27
2022-08-28T18:51:41.791Z,69.03
2022-08-28T18:54:10.034Z,69.10
2022-08-28T18:56:40.920Z,68.85
2022-08-28T18:59:10.219Z,69.37
2022-08-28T19:01:38.517Z,70.11
2022-08-28T19:04:08.214Z,69.87
2022-08-28T19:06:36.714Z,70.06
2022-08-28T19:09:06.453Z,69.92
2022-08-28T19:11:35.903Z,70.03
2022-08-28T19:14:04.758Z,70.26
2022-08-28T19:16:35.218Z,70.16
2022-08-28T19:19:03.491Z,69.93
2022-08-28T19:21:33.876Z,69.98
2022-08-28T19:24:01.897Z,70.41
2022-08-28T19:26:30.086Z,70.38
2022-08-28T19:28:58.614Z,71.05
2022-08-28T19:31:27.216Z,70.99
2022-08-28T19:33:57.262Z,71.15
2022-08-28T19:36:27.167Z,71.04
2022-08-28T19:38:56.604Z,70.86
2022-08-28T19:41:25.055Z,70.92
2022-08-28T19:43:53.179Z,71.01
2022-08-28T19:46:21.318Z,71.22
2022-08-28T19:48:49.800Z,71.55
2022-08-28T19:51:22.518Z,71.57
2022-08-28T19:53:57.402Z,71.34
2022-08-28T19:56:28.348Z,70.99
2022-08-28T19:58:58.473Z,71.45
2022-08-28T20:01:29.470Z,71.43
2022-08-28T20:03:59.196Z,71.82
2022-08-28T20:06:27.376Z,71.68
2022-08-28T20:08:55.490Z,71.45
2022-08-28T20:11:30.133Z,71.94
2022-08-28T20:14:04.100Z,71.67
2022-08-28T20:16:35.227Z,71.73
2022-08-28T20:19:04.041Z,72.06
2022-08-28T20:21:37.618Z,72.54
2022-08-28T20:24:07.350Z,71.89
2022-08-28T20:26:35.792Z,71.84
2022-08-28T20:29:06.773Z,71.98
2022-08-28T20:31:35.214Z,72.47
2022-08-28T20:34:03.449Z,73.06
2022-08-28T20:36:31.708Z,73.57
2022-08-28T20:39:00.051Z,73.22
2022-08-28T20:41:28.454Z,73.12
2022-08-28T20:43:56.684Z,72.85
2022-08-28T20:46:26.242Z,73.39
2022-08-28T20:48:54.252Z,73.85
2022-08-28T20:51:42.423Z,73.98
2022-08-28T20:54:10.438Z,73.98
2022-08-28T20:56:38.689Z,74.42
2022-08-28T20:59:06.745Z,74.61
2022-08-28T21:01:36.285Z,74.40
2022-08-28T21:04:04.938Z,74.72
2022-08-28T21:06:32.975Z,75.03
2022-08-28T21:09:01.117Z,74.78
2022-08-28T21:11:29.867Z,74.64
2022-08-28T21:13:57.944Z,74.75
2022-08-28T21:16:26.651Z,74.46
2022-08-28T21:19:14.579Z,74.44
2022-08-28T21:21:44.093Z,74.93
2022-08-28T21:24:14.630Z,75.31
2022-08-28T21:26:43.281Z,75.76
2022-08-28T21:29:12.271Z,75.48
2022-08-28T21:31:41.567Z,75.51
2022-08-28T21:34:11.516Z,75.43
2022-08-28T21:36:39.913Z,75.29
2022-08-28T21:39:07.896Z,75.36
2022-08-28T21:41:36.052Z,75.74
2022-08-28T21:44:04.802Z,75.70
2022-08-28T21:46:32.987Z,75.19
2022-08-28T21:49:01.344Z,75.58
2022-08-28T21:51:30.876Z,75.86
2022-08-28T21:53:58.928Z,76.23
2022-08-28T21:56:28.890Z,75.94
2022-08-28T21:58:57.690Z,75.79
2022-08-28T22:01:26.568Z,75.85
2022-08-28T22:03:55.547Z,76.29
2022-08-28T22:06:25.288Z,75.64
2022-08-28T22:08:55.856Z,76.02
2022-08-28T22:11:25.218Z,76.78
2022-08-28T22:13:53.583Z,76.90
2022-08-28T22:16:21.957Z,76.94
2022-08-28T22:18:50.125Z,77.06
2022-08-28T22:21:38.493Z,77.22
2022-08-28T22:24:08.837Z,77.67
2022-08-28T22:26:37.097Z,77.52
2022-08-28T22:29:05.914Z,77.44
2022-08-28T22:31:35.068Z,76.83
2022-08-28T22:34:06.031Z,77.26
2022-08-28T22:36:34.261Z,77.17
2022-08-28T22:39:02.240Z,76.96
2022-08-28T22:41:32.452Z,76.94
2022-08-28T22:44:00.455Z,77.47
2022-08-28T22:46:28.550Z,77.76
2022-08-28T22:48:56.699Z,77.02
2022-08-28T22:51:25.126Z,76.72
2022-08-28T22:53:53.165Z,77.30
2022-08-28T22:56:21.672Z,77.38
2022-08-28T22:58:51.119Z,77.42
2022-08-28T23:01:21.680Z,77.47
2022-08-28T23:03:50.410Z,77.55
2022-08-28T23:06:20.377Z,77.15
2022-08-28T23:08:48.723Z,77.61
2022-08-28T23:11:17.004Z,77.96
2022-08-28T23:13:45.103Z,78.48
2022-08-28T23:16:16.584Z,78.50
2022-08-28T23:19:06.596Z,78.13
2022-08-28T23:21:32.921Z,78.15
2022-08-28T23:24:00.987Z,77.92
2022-08-28T23:26:29.487Z,78.27
2022-08-28T23:28:57.500Z,78.74
2022-08-28T23:31:26.973Z,78.38
2022-08-28T23:33:55.148Z,78.23
2022-08-28T23:36:23.562Z,77.54
2022-08-28T23:38:51.978Z,77.17
2022-08-28T23:41:20.405Z,77.23
2022-08-28T23:43:48.744Z,77.44
2022-08-28T23:46:17.145Z,77.29
2022-08-28T23:48:50.089Z,77.72
2022-08-28T23:51:18.373Z,77.18
2022-08-28T23:53:46.370Z,77.04
2022-08-28T23:56:15.829Z,76.82
2022-08-28T23:58:44.389Z,76.57
